createdAt,value
2023-05-09T00:00:49.696Z,6.47
2023-05-09T00:03:16.061Z,6.35
2023-05-09T00:05:42.443Z,6.38
2023-05-09T00:08:09.043Z,6.15
2023-05-09T00:10:35.363Z,6.97
2023-05-09T00:13:01.797Z,6.95
2023-05-09T00:15:28.291Z,6.15
2023-05-09T00:17:54.735Z,5.80
2023-05-09T00:20:21.688Z,5.77
2023-05-09T00:22:48.064Z,5.30
2023-05-09T00:25:14.598Z,5.70
2023-05-09T00:27:41.160Z,5.70
2023-05-09T00:30:08.183Z,5.75
2023-05-09T00:32:34.666Z,5.57
2023-05-09T00:35:01.016Z,6.10
2023-05-09T00:37:29.074Z,6.32
2023-05-09T00:39:55.383Z,5.65
2023-05-09T00:42:21.689Z,6.13
2023-05-09T00:44:48.014Z,5.90
2023-05-09T00:47:14.406Z,6.18
2023-05-09T00:49:40.730Z,5.75
2023-05-09T00:52:07.038Z,6.05
2023-05-09T00:54:33.403Z,5.25
2023-05-09T00:56:59.732Z,6.05
2023-05-09T00:59:27.760Z,5.32
2023-05-09T01:01:54.116Z,5.15
2023-05-09T01:04:20.531Z,5.28
2023-05-09T01:07:30.153Z,5.53
2023-05-09T01:10:07.709Z,4.97
2023-05-09T01:12:58.772Z,5.22
2023-05-09T01:15:50.455Z,5.18
2023-05-09T01:18:30.192Z,4.68
2023-05-09T01:21:08.398Z,4.78
2023-05-09T01:24:13.521Z,5.15
2023-05-09T01:26:55.972Z,5.10
2023-05-09T01:29:45.468Z,5.05
2023-05-09T01:32:17.274Z,4.22
2023-05-09T01:34:45.492Z,4.55
2023-05-09T01:37:14.785Z,4.72
2023-05-09T01:39:44.780Z,4.70
2023-05-09T01:42:12.903Z,5.18
2023-05-09T01:44:41.164Z,4.40
2023-05-09T01:47:08.533Z,4.38
2023-05-09T01:49:40.192Z,3.90
2023-05-09T01:52:09.977Z,4.10
2023-05-09T01:54:37.774Z,4.70
2023-05-09T01:57:06.259Z,4.72
2023-05-09T01:59:33.887Z,4.10
2023-05-09T02:02:02.692Z,3.80
2023-05-09T02:04:30.872Z,3.80
2023-05-09T02:06:58.965Z,4.50
2023-05-09T02:09:25.837Z,3.95
2023-05-09T02:11:52.243Z,4.65
2023-05-09T02:14:18.542Z,4.35
2023-05-09T02:16:44.925Z,4.63
2023-05-09T02:19:11.396Z,4.95
2023-05-09T02:21:37.874Z,4.47
2023-05-09T02:24:04.583Z,3.90
2023-05-09T02:26:31.378Z,4.50
2023-05-09T02:28:58.829Z,3.67
2023-05-09T02:31:27.357Z,3.95
2023-05-09T02:33:54.714Z,4.28
2023-05-09T02:36:22.575Z,4.07
2023-05-09T02:38:49.028Z,4.28
2023-05-09T02:41:16.084Z,4.22
2023-05-09T02:43:42.936Z,4.20
2023-05-09T02:46:10.386Z,3.85
2023-05-09T02:48:36.895Z,3.80
2023-05-09T02:51:03.389Z,3.65
2023-05-09T02:53:29.758Z,4.25
2023-05-09T02:55:56.068Z,3.80
2023-05-09T02:58:22.380Z,3.28
2023-05-09T03:00:48.712Z,3.65
2023-05-09T03:03:15.191Z,3.65
2023-05-09T03:05:41.565Z,3.78
2023-05-09T03:08:07.912Z,3.70
2023-05-09T03:10:34.531Z,4.05
2023-05-09T03:13:01.271Z,4.10
2023-05-09T03:15:27.678Z,4.15
2023-05-09T03:17:54.081Z,4.15
2023-05-09T03:20:20.487Z,4.32
2023-05-09T03:22:46.807Z,4.05
2023-05-09T03:25:13.410Z,4.00
2023-05-09T03:27:39.901Z,4.55
2023-05-09T03:30:06.953Z,4.00
2023-05-09T03:32:33.396Z,3.90
2023-05-09T03:34:59.713Z,3.85
2023-05-09T03:37:27.224Z,4.13
2023-05-09T03:39:53.749Z,3.67
2023-05-09T03:42:20.045Z,3.67
2023-05-09T03:44:46.370Z,3.55
2023-05-09T03:47:12.694Z,3.40
2023-05-09T03:49:39.008Z,3.63
2023-05-09T03:52:05.505Z,3.70
2023-05-09T03:54:31.792Z,3.40
2023-05-09T03:56:58.093Z,3.20
2023-05-09T03:59:24.422Z,3.55
2023-05-09T04:01:50.854Z,3.50
2023-05-09T04:04:17.249Z,2.75
2023-05-09T04:06:43.564Z,3.33
2023-05-09T04:09:09.935Z,3.35
2023-05-09T04:11:36.264Z,3.70
2023-05-09T04:14:02.604Z,3.35
2023-05-09T04:16:30.125Z,3.25
2023-05-09T04:18:56.452Z,2.97
2023-05-09T04:21:22.775Z,3.25
2023-05-09T04:23:49.083Z,3.53
2023-05-09T04:26:15.403Z,3.10
2023-05-09T04:28:41.692Z,3.40
2023-05-09T04:31:08.096Z,3.35
2023-05-09T04:33:34.542Z,3.30
2023-05-09T04:36:00.907Z,3.47
2023-05-09T04:38:27.698Z,3.13
2023-05-09T04:40:54.056Z,2.92
2023-05-09T04:43:20.372Z,3.00
2023-05-09T04:45:46.803Z,3.33
2023-05-09T04:48:13.124Z,3.90
2023-05-09T04:50:40.953Z,3.80
2023-05-09T04:53:07.272Z,3.20
2023-05-09T04:55:33.607Z,3.22
2023-05-09T04:57:59.949Z,3.40
2023-05-09T05:00:26.248Z,3.40
2023-05-09T05:02:52.583Z,3.50
2023-05-09T05:05:24.528Z,3.38
2023-05-09T05:07:51.895Z,3.80
2023-05-09T05:10:18.240Z,3.83
2023-05-09T05:12:44.567Z,3.83
2023-05-09T05:15:11.576Z,3.33
2023-05-09T05:17:37.998Z,3.78
2023-05-09T05:20:04.827Z,4.22
2023-05-09T05:22:32.761Z,4.03
2023-05-09T05:24:59.213Z,3.85
2023-05-09T05:27:25.524Z,3.80
2023-05-09T05:29:51.828Z,4.07
2023-05-09T05:32:18.226Z,4.00
2023-05-09T05:34:44.532Z,4.10
2023-05-09T05:37:10.871Z,4.45
2023-05-09T05:39:37.162Z,4.38
2023-05-09T05:42:03.515Z,4.55
2023-05-09T05:44:29.840Z,5.03
2023-05-09T05:46:56.263Z,4.30
2023-05-09T05:49:22.587Z,4.07
2023-05-09T05:51:48.898Z,5.15
2023-05-09T05:54:15.193Z,4.47
2023-05-09T05:56:41.527Z,3.95
2023-05-09T05:59:07.950Z,4.53
2023-05-09T06:01:34.340Z,3.92
2023-05-09T06:04:00.686Z,4.90
2023-05-09T06:06:27.364Z,4.80
2023-05-09T06:08:53.753Z,4.25
2023-05-09T06:11:20.082Z,4.13
2023-05-09T06:13:46.399Z,3.88
2023-05-09T06:16:19.640Z,3.80
2023-05-09T06:18:47.455Z,4.07
2023-05-09T06:21:13.810Z,4.50
2023-05-09T06:23:47.265Z,4.43
2023-05-09T06:26:23.774Z,4.43
2023-05-09T06:28:50.151Z,4.32
2023-05-09T06:31:16.559Z,4.97
2023-05-09T06:33:42.924Z,4.45
2023-05-09T06:36:09.406Z,4.88
2023-05-09T06:38:35.701Z,5.03
2023-05-09T06:41:02.017Z,5.07
2023-05-09T06:43:28.347Z,5.13
2023-05-09T06:45:54.753Z,5.35
2023-05-09T06:48:21.083Z,5.40
2023-05-09T06:50:47.693Z,6.30
2023-05-09T06:53:14.112Z,5.57
2023-05-09T06:55:40.461Z,5.13
2023-05-09T06:58:06.760Z,5.03
2023-05-09T07:00:33.098Z,5.18
2023-05-09T07:02:59.425Z,5.90
2023-05-09T07:05:25.932Z,5.45
2023-05-09T07:07:52.519Z,5.65
2023-05-09T07:10:18.895Z,5.65
2023-05-09T07:12:45.194Z,6.25
2023-05-09T07:15:11.691Z,5.40
2023-05-09T07:17:38.042Z,5.47
2023-05-09T07:20:04.916Z,5.50
2023-05-09T07:22:32.676Z,5.65
2023-05-09T07:24:59.972Z,6.85
2023-05-09T07:27:26.335Z,6.38
2023-05-09T07:29:52.698Z,6.35
2023-05-09T07:32:19.559Z,6.43
2023-05-09T07:34:45.880Z,7.32
2023-05-09T07:37:13.664Z,7.03
2023-05-09T07:39:41.717Z,7.65
2023-05-09T07:42:08.058Z,7.25
2023-05-09T07:44:34.770Z,7.90
2023-05-09T07:47:01.232Z,6.88
2023-05-09T07:49:27.540Z,7.40
2023-05-09T07:51:53.849Z,7.45
2023-05-09T07:54:20.179Z,7.00
2023-05-09T07:56:46.495Z,7.47
2023-05-09T07:59:12.825Z,7.30
2023-05-09T08:01:39.228Z,8.93
2023-05-09T08:04:05.654Z,8.00
2023-05-09T08:06:32.705Z,7.38
2023-05-09T08:08:59.005Z,8.02
2023-05-09T08:11:25.334Z,7.55
2023-05-09T08:13:51.976Z,7.95
2023-05-09T08:16:18.277Z,8.35
2023-05-09T08:18:44.994Z,8.35
2023-05-09T08:21:11.705Z,7.82
2023-05-09T08:23:38.026Z,9.02
2023-05-09T08:26:04.376Z,7.93
2023-05-09T08:28:30.669Z,9.02
2023-05-09T08:30:57.092Z,8.75
2023-05-09T08:33:23.991Z,8.95
2023-05-09T08:35:51.583Z,9.35
2023-05-09T08:38:17.889Z,9.20
2023-05-09T08:40:44.245Z,9.00
2023-05-09T08:43:11.793Z,7.10
2023-05-09T08:45:51.723Z,8.18
2023-05-09T08:48:19.107Z,8.73
2023-05-09T08:50:45.515Z,7.93
2023-05-09T08:53:12.008Z,8.10
2023-05-09T08:55:38.749Z,8.82
2023-05-09T08:58:05.680Z,9.38
2023-05-09T09:00:33.554Z,8.50
2023-05-09T09:03:01.850Z,7.90
2023-05-09T09:08:01.698Z,7.78
2023-05-09T09:10:31.710Z,8.85
2023-05-09T09:12:59.520Z,8.95
2023-05-09T09:15:29.724Z,9.27
2023-05-09T09:18:01.087Z,10.90
2023-05-09T09:20:31.299Z,11.05
2023-05-09T09:22:59.867Z,11.63
2023-05-09T09:25:26.251Z,9.73
2023-05-09T09:27:52.557Z,10.48
2023-05-09T09:30:19.050Z,12.02
2023-05-09T09:32:45.395Z,12.15
2023-05-09T09:35:12.106Z,10.55
2023-05-09T09:37:40.565Z,9.52
2023-05-09T09:40:08.738Z,10.40
2023-05-09T09:42:48.490Z,10.13
2023-05-09T09:45:19.769Z,10.75
2023-05-09T09:47:48.320Z,9.77
2023-05-09T09:50:17.151Z,9.82
2023-05-09T09:52:54.659Z,9.15
2023-05-09T09:55:22.742Z,8.88
2023-05-09T09:57:49.037Z,9.68
2023-05-09T10:00:17.648Z,9.93
2023-05-09T10:03:02.418Z,9.15
2023-05-09T10:05:30.571Z,9.55
2023-05-09T10:07:58.941Z,8.65
2023-05-09T10:10:27.795Z,8.95
2023-05-09T10:12:58.968Z,10.07
2023-05-09T10:15:30.041Z,10.05
2023-05-09T10:18:00.904Z,10.02
2023-05-09T10:20:28.496Z,9.38
2023-05-09T10:22:58.687Z,9.15
2023-05-09T10:25:46.762Z,8.18
2023-05-09T10:28:22.450Z,11.07
2023-05-09T10:31:14.757Z,10.23
2023-05-09T10:33:48.919Z,9.43
2023-05-09T10:36:17.733Z,10.05
2023-05-09T10:38:44.988Z,9.35
2023-05-09T10:41:11.645Z,9.90
2023-05-09T10:43:38.167Z,9.20
2023-05-09T10:46:05.384Z,8.68
2023-05-09T10:48:33.174Z,9.75
2023-05-09T10:51:03.959Z,8.35
2023-05-09T10:53:49.910Z,8.93
2023-05-09T10:56:33.681Z,7.88
2023-05-09T10:59:00.417Z,7.82
2023-05-09T11:01:38.082Z,8.05
2023-05-09T11:04:16.409Z,8.70
2023-05-09T11:06:42.695Z,8.70
2023-05-09T11:09:28.635Z,7.43
2023-05-09T11:12:05.472Z,8.07
2023-05-09T11:14:37.529Z,8.77
2023-05-09T11:17:11.928Z,8.50
2023-05-09T11:19:47.302Z,11.07
2023-05-09T11:22:18.651Z,7.82
2023-05-09T11:24:46.049Z,7.90
2023-05-09T11:27:23.127Z,7.13
2023-05-09T11:29:57.473Z,7.35
2023-05-09T11:32:40.761Z,8.20
2023-05-09T11:35:09.104Z,7.88
2023-05-09T11:38:04.832Z,8.10
2023-05-09T11:40:32.269Z,7.57
2023-05-09T11:42:59.866Z,7.03
2023-05-09T11:45:28.933Z,7.88
2023-05-09T11:47:55.562Z,7.05
2023-05-09T11:50:21.884Z,8.85
2023-05-09T11:52:49.643Z,10.32
2023-05-09T11:55:18.340Z,7.93
2023-05-09T11:57:47.215Z,7.95
2023-05-09T12:00:23.187Z,6.60
2023-05-09T12:02:50.269Z,8.27
2023-05-09T12:05:18.258Z,6.60
2023-05-09T12:07:45.464Z,7.63
2023-05-09T12:10:14.373Z,6.63
2023-05-09T12:12:49.317Z,7.07
2023-05-09T12:15:17.024Z,7.13
2023-05-09T12:17:45.027Z,7.18
2023-05-09T12:20:11.868Z,6.75
2023-05-09T12:22:38.683Z,6.82
2023-05-09T12:25:09.683Z,5.63
2023-05-09T12:27:37.770Z,4.97
2023-05-09T12:30:08.351Z,5.13
2023-05-09T12:32:35.476Z,4.78
2023-05-09T12:35:02.206Z,4.32
2023-05-09T12:37:31.073Z,4.38
2023-05-09T12:40:10.040Z,4.97
2023-05-09T12:42:36.533Z,4.80
2023-05-09T12:45:03.637Z,5.10
2023-05-09T12:47:31.144Z,4.70
2023-05-09T12:49:59.019Z,5.28
2023-05-09T12:52:25.989Z,6.00
2023-05-09T12:54:53.494Z,5.28
2023-05-09T12:57:25.133Z,5.45
2023-05-09T12:59:51.471Z,5.47
2023-05-09T13:02:17.820Z,5.95
2023-05-09T13:04:44.177Z,5.70
2023-05-09T13:07:10.743Z,5.72
2023-05-09T13:09:54.875Z,5.70
2023-05-09T13:12:21.224Z,5.60
2023-05-09T13:14:47.608Z,5.57
2023-05-09T13:17:14.016Z,5.40
2023-05-09T13:19:40.348Z,6.00
2023-05-09T13:22:06.690Z,5.20
2023-05-09T13:24:33.016Z,5.90
2023-05-09T13:26:59.343Z,5.63
2023-05-09T13:29:25.697Z,5.25
2023-05-09T13:31:52.005Z,5.60
2023-05-09T13:34:18.344Z,5.07
2023-05-09T13:36:44.652Z,5.50
2023-05-09T13:39:10.974Z,4.93
2023-05-09T13:41:38.191Z,5.60
2023-05-09T13:44:04.760Z,6.05
2023-05-09T13:46:31.130Z,5.43
2023-05-09T13:48:57.440Z,5.47
2023-05-09T13:51:23.749Z,4.93
2023-05-09T13:53:50.045Z,5.28
2023-05-09T13:56:16.386Z,5.30
2023-05-09T13:58:42.686Z,5.32
2023-05-09T14:01:09.121Z,5.45
2023-05-09T14:03:35.499Z,4.95
2023-05-09T14:06:01.939Z,5.80
2023-05-09T14:08:28.256Z,5.32
2023-05-09T14:10:54.571Z,6.25
2023-05-09T14:13:20.936Z,5.57
2023-05-09T14:15:47.413Z,5.60
2023-05-09T14:18:17.731Z,5.28
2023-05-09T14:20:45.602Z,4.25
2023-05-09T14:23:11.912Z,4.55
2023-05-09T14:25:38.196Z,4.57
2023-05-09T14:28:04.880Z,4.80
2023-05-09T14:30:31.204Z,4.72
2023-05-09T14:32:57.551Z,4.47
2023-05-09T14:35:23.964Z,5.00
2023-05-09T14:37:50.323Z,4.90
2023-05-09T14:40:16.904Z,4.60
2023-05-09T14:42:43.415Z,5.63
2023-05-09T14:45:09.964Z,5.28
2023-05-09T14:47:36.265Z,4.30
2023-05-09T14:50:02.686Z,5.47
2023-05-09T14:52:28.979Z,4.88
2023-05-09T14:54:55.570Z,5.10
2023-05-09T14:57:21.881Z,5.50
2023-05-09T14:59:48.176Z,5.63
2023-05-09T15:02:14.487Z,5.72
2023-05-09T15:04:40.817Z,5.60
2023-05-09T15:07:07.110Z,5.75
2023-05-09T15:09:33.438Z,5.68
2023-05-09T15:11:59.761Z,5.88
2023-05-09T15:14:26.112Z,5.93
2023-05-09T15:16:52.504Z,6.57
2023-05-09T15:19:19.153Z,7.13
2023-05-09T15:21:45.560Z,7.50
2023-05-09T15:24:11.854Z,6.25
2023-05-09T15:26:38.308Z,6.38
2023-05-09T15:29:04.597Z,7.60
2023-05-09T15:31:32.792Z,5.95
2023-05-09T15:33:59.663Z,6.72
2023-05-09T15:36:27.854Z,6.30
2023-05-09T15:38:54.131Z,6.47
2023-05-09T15:41:20.466Z,6.57
2023-05-09T15:43:46.760Z,6.47
2023-05-09T15:46:13.118Z,6.38
2023-05-09T15:48:39.422Z,6.47
2023-05-09T15:51:05.832Z,6.70
2023-05-09T15:53:32.140Z,6.90
2023-05-09T15:55:58.453Z,6.35
2023-05-09T15:58:24.944Z,6.53
2023-05-09T16:00:51.378Z,5.55
2023-05-09T16:03:18.335Z,7.22
2023-05-09T16:05:44.937Z,5.30
2023-05-09T16:08:11.244Z,5.55
2023-05-09T16:10:37.640Z,5.88
2023-05-09T16:13:04.000Z,5.22
2023-05-09T16:15:30.419Z,5.53
2023-05-09T16:17:56.745Z,5.80
2023-05-09T16:20:23.168Z,5.75
2023-05-09T16:22:49.491Z,5.63
2023-05-09T16:25:16.527Z,5.40
2023-05-09T16:27:42.893Z,6.30
2023-05-09T16:30:09.691Z,6.18
2023-05-09T16:32:36.006Z,5.43
2023-05-09T16:35:02.307Z,5.30
2023-05-09T16:37:28.611Z,5.50
2023-05-09T16:39:55.143Z,6.25
2023-05-09T16:42:21.462Z,5.53
2023-05-09T16:44:47.945Z,5.85
2023-05-09T16:47:14.322Z,6.00
2023-05-09T16:49:40.617Z,5.50
2023-05-09T16:52:06.984Z,5.70
2023-05-09T16:54:33.276Z,5.75
2023-05-09T16:56:59.594Z,5.22
2023-05-09T16:59:25.949Z,6.90
2023-05-09T17:01:52.248Z,6.25
2023-05-09T17:04:18.561Z,6.60
2023-05-09T17:06:44.958Z,6.47
2023-05-09T17:09:11.255Z,6.85
2023-05-09T17:11:37.542Z,6.70
2023-05-09T17:14:03.848Z,6.82
2023-05-09T17:16:30.195Z,6.80
2023-05-09T17:18:56.518Z,7.43
2023-05-09T17:21:22.809Z,6.55
2023-05-09T17:23:49.198Z,6.97
2023-05-09T17:26:15.500Z,6.60
2023-05-09T17:28:41.828Z,6.13
2023-05-09T17:31:08.125Z,7.15
2023-05-09T17:33:34.480Z,7.03
2023-05-09T17:36:00.857Z,6.40
2023-05-09T17:38:27.163Z,5.97
2023-05-09T17:40:53.485Z,6.00
2023-05-09T17:43:19.804Z,5.95
2023-05-09T17:45:46.157Z,6.40
2023-05-09T17:48:12.474Z,6.30
2023-05-09T17:50:38.822Z,7.22
2023-05-09T17:53:05.129Z,6.95
2023-05-09T17:55:31.431Z,6.90
2023-05-09T17:57:57.726Z,7.50
2023-05-09T18:00:24.089Z,8.10
2023-05-09T18:02:50.444Z,7.47
2023-05-09T18:05:16.850Z,7.43
2023-05-09T18:07:43.139Z,7.13
2023-05-09T18:10:09.961Z,8.23
2023-05-09T18:12:37.173Z,8.07
2023-05-09T18:15:04.144Z,8.50
2023-05-09T18:17:30.462Z,8.43
2023-05-09T18:19:56.807Z,9.18
2023-05-09T18:22:23.135Z,8.63
2023-05-09T18:24:49.538Z,10.18
2023-05-09T18:27:16.518Z,9.07
2023-05-09T18:29:42.799Z,8.90
2023-05-09T18:32:09.103Z,9.13
2023-05-09T18:34:35.404Z,9.88
2023-05-09T18:37:01.697Z,8.88
2023-05-09T18:39:27.994Z,10.68
2023-05-09T18:41:54.337Z,10.25
2023-05-09T18:44:20.639Z,10.65
2023-05-09T18:46:47.025Z,11.25
2023-05-09T18:49:13.355Z,9.43
2023-05-09T18:51:39.706Z,10.60
2023-05-09T18:54:06.025Z,11.05
2023-05-09T18:56:32.379Z,10.98
2023-05-09T18:58:58.658Z,10.23
2023-05-09T19:01:25.050Z,11.55
2023-05-09T19:03:51.642Z,11.77
2023-05-09T19:06:17.959Z,11.98
2023-05-09T19:08:44.336Z,10.05
2023-05-09T19:11:10.653Z,11.13
2023-05-09T19:13:38.118Z,10.05
2023-05-09T19:16:05.532Z,10.27
2023-05-09T19:18:31.876Z,9.57
2023-05-09T19:20:58.810Z,9.63
2023-05-09T19:23:25.935Z,11.18
2023-05-09T19:25:52.960Z,11.25
2023-05-09T19:28:20.282Z,9.52
2023-05-09T19:30:46.733Z,10.25
2023-05-09T19:33:13.065Z,8.55
2023-05-09T19:35:41.265Z,10.75
2023-05-09T19:38:07.733Z,9.05
2023-05-09T19:40:34.372Z,8.40
2023-05-09T19:43:00.661Z,7.68
2023-05-09T19:45:26.973Z,7.30
2023-05-09T19:47:53.320Z,6.82
2023-05-09T19:50:19.764Z,8.13
2023-05-09T19:52:46.273Z,7.03
2023-05-09T19:55:12.784Z,7.25
2023-05-09T19:57:39.623Z,7.75
2023-05-09T20:00:08.525Z,7.90
2023-05-09T20:02:34.967Z,7.60
2023-05-09T20:05:01.339Z,8.13
2023-05-09T20:07:27.795Z,7.65
2023-05-09T20:09:54.112Z,7.78
2023-05-09T20:12:20.415Z,8.60
2023-05-09T20:14:46.736Z,8.25
2023-05-09T20:17:13.032Z,7.25
2023-05-09T20:19:39.410Z,7.38
2023-05-09T20:22:05.727Z,7.10
2023-05-09T20:24:32.064Z,7.68
2023-05-09T20:26:58.473Z,7.43
2023-05-09T20:29:25.407Z,7.97
2023-05-09T20:31:51.775Z,7.53
2023-05-09T20:34:18.110Z,7.05
2023-05-09T20:36:47.307Z,7.53
2023-05-09T20:39:13.612Z,7.28
2023-05-09T20:41:39.926Z,8.75
2023-05-09T20:44:06.238Z,9.30
2023-05-09T20:46:32.706Z,9.65
2023-05-09T20:48:59.004Z,8.02
2023-05-09T20:51:25.368Z,7.95
2023-05-09T20:53:51.681Z,8.48
2023-05-09T20:56:18.000Z,9.27
2023-05-09T20:58:44.318Z,9.10
2023-05-09T21:01:10.659Z,9.43
2023-05-09T21:03:37.003Z,7.97
2023-05-09T21:06:03.542Z,7.68
2023-05-09T21:08:29.867Z,7.28
2023-05-09T21:10:56.178Z,6.85
2023-05-09T21:13:22.701Z,6.78
2023-05-09T21:15:49.711Z,7.10
2023-05-09T21:18:16.486Z,6.72
2023-05-09T21:20:42.797Z,7.10
2023-05-09T21:23:09.120Z,6.03
2023-05-09T21:25:35.421Z,6.68
2023-05-09T21:28:01.762Z,6.45
2023-05-09T21:30:28.116Z,6.35
2023-05-09T21:32:54.490Z,6.45
2023-05-09T21:35:20.905Z,6.85
2023-05-09T21:37:47.202Z,6.63
2023-05-09T21:40:13.876Z,6.50
2023-05-09T21:42:40.410Z,6.00
2023-05-09T21:45:09.503Z,6.47
2023-05-09T21:47:36.593Z,6.72
2023-05-09T21:50:03.133Z,6.63
2023-05-09T21:52:29.933Z,6.53
2023-05-09T21:54:56.238Z,6.60
2023-05-09T21:57:22.560Z,6.47
2023-05-09T21:59:48.857Z,6.43
2023-05-09T22:02:15.353Z,6.35
2023-05-09T22:04:41.723Z,6.40
2023-05-09T22:07:08.050Z,6.68
2023-05-09T22:09:34.717Z,7.28
2023-05-09T22:12:01.077Z,7.00
2023-05-09T22:14:27.384Z,6.63
2023-05-09T22:16:53.684Z,6.15
2023-05-09T22:19:20.037Z,7.00
2023-05-09T22:21:46.424Z,7.03
2023-05-09T22:24:12.752Z,6.95
2023-05-09T22:26:39.062Z,6.50
2023-05-09T22:29:05.379Z,6.90
2023-05-09T22:31:31.734Z,6.88
2023-05-09T22:33:58.050Z,7.30
2023-05-09T22:36:24.828Z,7.35
2023-05-09T22:38:51.132Z,7.30
2023-05-09T22:41:17.452Z,7.13
2023-05-09T22:43:43.752Z,6.90
2023-05-09T22:46:10.112Z,7.40
2023-05-09T22:48:36.448Z,6.43
2023-05-09T22:51:02.826Z,6.85
2023-05-09T22:53:29.134Z,6.88
2023-05-09T22:55:55.438Z,6.90
2023-05-09T22:58:21.822Z,6.88
2023-05-09T23:00:48.136Z,6.78
2023-05-09T23:03:14.524Z,7.22
2023-05-09T23:05:40.942Z,7.38
2023-05-09T23:08:07.293Z,6.80
2023-05-09T23:10:33.593Z,7.00
2023-05-09T23:12:59.990Z,7.38
2023-05-09T23:15:26.482Z,6.97
2023-05-09T23:17:52.904Z,7.57
2023-05-09T23:20:19.595Z,7.22
2023-05-09T23:22:45.956Z,8.10
2023-05-09T23:25:12.272Z,8.23
2023-05-09T23:27:38.644Z,8.65
2023-05-09T23:30:05.574Z,8.02
2023-05-09T23:32:31.889Z,8.50
2023-05-09T23:34:58.224Z,9.18
2023-05-09T23:37:24.509Z,8.77
2023-05-09T23:39:50.804Z,9.13
2023-05-09T23:42:17.101Z,9.18
2023-05-09T23:44:43.405Z,9.38
2023-05-09T23:47:09.697Z,9.75
2023-05-09T23:49:35.997Z,9.98
2023-05-09T23:52:02.340Z,9.30
2023-05-09T23:54:28.708Z,9.32
2023-05-09T23:56:55.012Z,9.55
2023-05-09T23:59:21.308Z,9.88
